createdAt,value
2022-08-24T00:01:05.473Z,73.26
2022-08-24T00:03:11.923Z,73.39
2022-08-24T00:05:15.244Z,74.59
2022-08-24T00:07:27.691Z,73.73
2022-08-24T00:09:31.943Z,74.83
2022-08-24T00:11:34.966Z,74.06
2022-08-24T00:13:39.279Z,74.93
2022-08-24T00:15:46.592Z,74.29
2022-08-24T00:17:50.961Z,74.99
2022-08-24T00:19:54.451Z,74.20
2022-08-24T00:21:57.639Z,75.24
2022-08-24T00:24:03.141Z,74.79
2022-08-24T00:26:07.144Z,74.36
2022-08-24T00:28:10.478Z,74.40
2022-08-24T00:30:16.478Z,74.67
2022-08-24T00:32:19.840Z,74.58
2022-08-24T00:34:25.570Z,74.68
2022-08-24T00:36:28.955Z,75.14
2022-08-24T00:38:31.970Z,74.74
2022-08-24T00:40:38.099Z,75.37
2022-08-24T00:42:41.882Z,74.68
2022-08-24T00:44:44.830Z,75.45
2022-08-24T00:46:51.479Z,74.94
2022-08-24T00:49:00.621Z,74.77
2022-08-24T00:51:07.296Z,74.79
2022-08-24T00:53:13.562Z,75.63
2022-08-24T00:55:20.201Z,75.92
2022-08-24T00:57:27.191Z,75.73
2022-08-24T00:59:34.257Z,74.77
2022-08-24T01:01:37.415Z,75.47
2022-08-24T01:03:42.633Z,75.93
2022-08-24T01:05:46.972Z,75.68
2022-08-24T01:07:52.708Z,76.19
2022-08-24T01:10:03.780Z,75.87
2022-08-24T01:12:07.238Z,75.84
2022-08-24T01:14:10.232Z,75.79
2022-08-24T01:16:13.457Z,76.55
2022-08-24T01:18:37.404Z,76.14
2022-08-24T01:20:40.465Z,76.44
2022-08-24T01:22:54.053Z,76.59
2022-08-24T01:24:59.838Z,76.42
2022-08-24T01:27:03.160Z,76.55
2022-08-24T01:29:11.702Z,76.93
2022-08-24T01:31:16.699Z,77.04
2022-08-24T01:33:24.386Z,76.80
2022-08-24T01:35:27.831Z,76.52
2022-08-24T01:37:32.842Z,76.84
2022-08-24T01:39:37.866Z,76.42
2022-08-24T01:41:42.438Z,77.03
2022-08-24T01:43:47.316Z,77.20
2022-08-24T01:45:50.354Z,76.68
2022-08-24T01:47:53.398Z,76.99
2022-08-24T01:49:56.455Z,76.79
2022-08-24T01:51:59.807Z,77.20
2022-08-24T01:54:03.692Z,76.92
2022-08-24T01:56:07.906Z,76.90
2022-08-24T01:58:13.471Z,77.05
2022-08-24T02:00:18.410Z,77.21
2022-08-24T02:02:26.717Z,77.29
2022-08-24T02:04:29.786Z,77.32
2022-08-24T02:06:33.394Z,77.16
2022-08-24T02:08:36.473Z,76.78
2022-08-24T02:10:39.399Z,78.02
2022-08-24T02:12:43.646Z,76.80
2022-08-24T02:14:48.325Z,77.57
2022-08-24T02:16:51.369Z,77.81
2022-08-24T02:19:01.748Z,78.05
2022-08-24T02:21:04.856Z,78.08
2022-08-24T02:23:08.810Z,78.00
2022-08-24T02:25:11.833Z,78.25
2022-08-24T02:27:17.449Z,78.24
2022-08-24T02:29:20.725Z,78.59
2022-08-24T02:31:25.171Z,77.57
2022-08-24T02:33:28.263Z,77.77
2022-08-24T02:35:31.299Z,78.54
2022-08-24T02:37:34.586Z,78.25
2022-08-24T02:39:44.554Z,77.93
2022-08-24T02:41:52.787Z,77.53
2022-08-24T02:43:57.012Z,78.19
2022-08-24T02:46:00.352Z,77.77
2022-08-24T02:48:05.513Z,78.36
2022-08-24T02:50:10.368Z,77.68
2022-08-24T02:52:13.299Z,78.02
2022-08-24T02:54:18.407Z,77.97
2022-08-24T02:56:26.961Z,78.03
2022-08-24T02:58:30.244Z,78.91
2022-08-24T03:00:33.616Z,79.01
2022-08-24T03:02:37.298Z,78.62
2022-08-24T03:04:41.756Z,78.53
2022-08-24T03:06:45.005Z,77.91
2022-08-24T03:08:53.302Z,78.48
2022-08-24T03:11:00.416Z,78.65
2022-08-24T03:13:03.598Z,78.25
2022-08-24T03:15:10.437Z,78.92
2022-08-24T03:17:13.753Z,78.45
2022-08-24T03:19:15.850Z,79.20
2022-08-24T03:21:21.923Z,78.06
2022-08-24T03:23:26.152Z,78.19
2022-08-24T03:25:29.639Z,79.13
2022-08-24T03:27:32.903Z,79.07
2022-08-24T03:29:36.600Z,78.70
2022-08-24T03:31:39.713Z,79.29
2022-08-24T03:33:43.104Z,79.46
2022-08-24T03:35:46.642Z,78.26
2022-08-24T03:37:53.900Z,79.33
2022-08-24T03:39:56.871Z,78.55
2022-08-24T03:41:59.936Z,80.12
2022-08-24T03:44:03.347Z,78.96
2022-08-24T03:46:09.548Z,78.67
2022-08-24T03:48:14.304Z,79.41
2022-08-24T03:50:18.216Z,79.31
2022-08-24T03:52:21.906Z,80.08
2022-08-24T03:54:26.791Z,79.97
2022-08-24T03:56:32.050Z,80.27
2022-08-24T03:58:36.193Z,80.17
2022-08-24T04:00:42.384Z,80.68
2022-08-24T04:02:48.138Z,80.81
2022-08-24T04:04:55.391Z,80.36
2022-08-24T04:06:58.438Z,81.50
2022-08-24T04:09:03.165Z,81.54
2022-08-24T04:11:13.510Z,79.58
2022-08-24T04:13:19.132Z,81.07
2022-08-24T04:15:24.413Z,81.31
2022-08-24T04:17:27.754Z,80.03
2022-08-24T04:19:30.791Z,81.48
2022-08-24T04:21:36.425Z,79.67
2022-08-24T04:23:47.708Z,81.69
2022-08-24T04:25:52.255Z,80.60
2022-08-24T04:27:56.799Z,81.68
2022-08-24T04:30:00.227Z,79.95
2022-08-24T04:32:08.413Z,80.76
2022-08-24T04:34:12.670Z,80.21
2022-08-24T04:36:15.617Z,81.47
2022-08-24T04:38:20.735Z,80.43
2022-08-24T04:40:40.642Z,82.43
2022-08-24T04:42:44.720Z,80.60
2022-08-24T04:44:49.095Z,81.84
2022-08-24T04:46:52.120Z,82.19
2022-08-24T04:48:56.203Z,80.34
2022-08-24T04:51:02.859Z,82.37
2022-08-24T04:53:07.960Z,82.51
2022-08-24T04:55:11.049Z,80.82
2022-08-24T04:57:17.972Z,80.76
2022-08-24T04:59:22.116Z,82.10
2022-08-24T05:01:29.195Z,81.62
2022-08-24T05:03:33.116Z,81.24
2022-08-24T05:05:36.557Z,81.22
2022-08-24T05:07:39.768Z,81.47
2022-08-24T05:09:42.776Z,79.56
2022-08-24T05:11:49.903Z,80.93
2022-08-24T05:13:58.189Z,79.80
2022-08-24T05:16:01.582Z,80.28
2022-08-24T05:18:07.616Z,81.26
2022-08-24T05:20:12.395Z,80.41
2022-08-24T05:22:15.703Z,80.08
2022-08-24T05:24:23.305Z,78.53
2022-08-24T05:26:28.610Z,77.93
2022-08-24T05:28:31.790Z,76.90
2022-08-24T05:30:36.504Z,76.05
2022-08-24T05:32:42.352Z,75.24
2022-08-24T05:34:46.724Z,74.72
2022-08-24T05:36:49.956Z,74.68
2022-08-24T05:39:11.366Z,75.73
2022-08-24T05:41:16.731Z,76.04
2022-08-24T05:43:21.459Z,75.53
2022-08-24T05:45:24.481Z,74.34
2022-08-24T05:47:28.912Z,72.45
2022-08-24T05:49:40.786Z,72.53
2022-08-24T05:51:46.165Z,71.86
2022-08-24T05:53:49.387Z,70.78
2022-08-24T05:55:52.896Z,70.00
2022-08-24T05:57:56.747Z,70.89
2022-08-24T06:00:01.495Z,72.24
2022-08-24T06:02:04.799Z,70.81
2022-08-24T06:04:08.508Z,70.12
2022-08-24T06:06:13.458Z,70.92
2022-08-24T06:08:18.091Z,70.68
2022-08-24T06:10:36.319Z,69.67
2022-08-24T06:12:40.813Z,68.96
2022-08-24T06:14:47.450Z,68.90
2022-08-24T06:16:52.462Z,67.85
2022-08-24T06:18:56.551Z,67.58
2022-08-24T06:21:06.360Z,67.24
2022-08-24T06:23:09.414Z,65.92
2022-08-24T06:25:36.548Z,65.94
2022-08-24T06:27:41.569Z,64.46
2022-08-24T06:29:44.723Z,64.71
2022-08-24T06:32:05.199Z,65.25
2022-08-24T06:34:08.965Z,64.41
2022-08-24T06:36:12.246Z,64.03
2022-08-24T06:38:15.321Z,64.60
2022-08-24T06:40:22.656Z,64.48
2022-08-24T06:42:26.353Z,63.23
2022-08-24T06:44:29.413Z,63.45
2022-08-24T06:46:41.051Z,63.47
2022-08-24T06:48:44.596Z,63.86
2022-08-24T06:50:48.239Z,63.80
2022-08-24T06:52:51.352Z,63.26
2022-08-24T06:54:54.452Z,62.79
2022-08-24T06:56:59.176Z,62.98
2022-08-24T06:59:03.364Z,61.99
2022-08-24T07:01:10.948Z,61.78
2022-08-24T07:03:14.363Z,63.07
2022-08-24T07:05:26.049Z,62.78
2022-08-24T07:08:01.481Z,61.57
2022-08-24T07:10:05.531Z,60.84
2022-08-24T07:12:10.307Z,61.43
2022-08-24T07:14:13.386Z,61.16
2022-08-24T07:16:18.746Z,60.64
2022-08-24T07:18:23.415Z,59.49
2022-08-24T07:20:26.921Z,59.17
2022-08-24T07:22:48.439Z,58.94
2022-08-24T07:24:51.630Z,60.19
2022-08-24T07:26:55.482Z,59.23
2022-08-24T07:29:05.433Z,58.85
2022-08-24T07:31:17.078Z,58.30
2022-08-24T07:33:29.503Z,58.42
2022-08-24T07:35:34.422Z,57.07
2022-08-24T07:37:41.446Z,57.09
2022-08-24T07:39:46.236Z,57.02
2022-08-24T07:42:11.928Z,55.73
2022-08-24T07:44:15.511Z,56.34
2022-08-24T07:46:18.601Z,55.57
2022-08-24T07:48:21.782Z,56.13
2022-08-24T07:50:26.018Z,55.79
2022-08-24T07:52:29.090Z,55.62
2022-08-24T07:54:32.417Z,55.53
2022-08-24T07:56:35.665Z,54.55
2022-08-24T07:58:39.599Z,55.42
2022-08-24T08:00:48.568Z,54.59
2022-08-24T08:02:51.671Z,54.47
2022-08-24T08:04:56.600Z,54.11
2022-08-24T08:07:02.039Z,55.34
2022-08-24T08:09:07.831Z,54.38
2022-08-24T08:11:11.209Z,54.35
2022-08-24T08:13:16.904Z,53.88
2022-08-24T08:15:20.043Z,53.08
2022-08-24T08:17:33.016Z,53.79
2022-08-24T08:19:36.313Z,53.47
2022-08-24T08:22:00.621Z,54.44
2022-08-24T08:24:16.620Z,52.98
2022-08-24T08:26:27.711Z,52.66
2022-08-24T08:28:43.501Z,52.56
2022-08-24T08:30:46.883Z,52.20
2022-08-24T08:32:51.353Z,51.01
2022-08-24T08:34:55.985Z,50.89
2022-08-24T08:37:01.310Z,50.86
2022-08-24T08:39:06.512Z,50.41
2022-08-24T08:41:32.269Z,50.68
2022-08-24T08:43:52.664Z,50.99
2022-08-24T08:46:09.854Z,51.54
2022-08-24T08:49:17.757Z,50.85
2022-08-24T08:51:50.562Z,50.50
2022-08-24T08:54:16.103Z,51.42
2022-08-24T08:56:24.057Z,51.76
2022-08-24T08:58:57.263Z,50.65
2022-08-24T09:01:12.284Z,50.29
2022-08-24T09:03:33.969Z,50.40
2022-08-24T09:06:22.423Z,50.26
2022-08-24T09:08:35.157Z,50.81
2022-08-24T09:10:51.829Z,50.02
2022-08-24T09:13:09.167Z,49.03
2022-08-24T09:15:21.956Z,49.23
2022-08-24T09:17:41.796Z,50.68
2022-08-24T09:19:57.743Z,51.02
2022-08-24T09:22:22.955Z,51.05
2022-08-24T09:24:59.567Z,50.50
2022-08-24T09:27:25.708Z,51.05
2022-08-24T09:29:42.771Z,50.24
2022-08-24T09:31:58.826Z,50.21
2022-08-24T09:34:10.394Z,49.38
2022-08-24T09:36:19.822Z,51.42
2022-08-24T09:38:34.209Z,50.56
2022-08-24T09:40:45.588Z,49.95
2022-08-24T09:43:16.260Z,50.94
2022-08-24T09:45:35.260Z,47.62
2022-08-24T09:48:15.771Z,49.13
2022-08-24T09:50:51.768Z,47.46
2022-08-24T09:53:38.734Z,48.05
2022-08-24T09:55:58.969Z,47.68
2022-08-24T09:58:17.444Z,48.53
2022-08-24T10:00:25.817Z,47.29
2022-08-24T10:02:38.776Z,47.61
2022-08-24T10:04:51.120Z,48.73
2022-08-24T10:07:00.987Z,47.82
2022-08-24T10:09:24.491Z,47.65
2022-08-24T10:11:35.548Z,48.41
2022-08-24T10:13:47.067Z,49.64
2022-08-24T10:16:03.253Z,49.43
2022-08-24T10:18:18.651Z,49.81
2022-08-24T10:20:24.608Z,49.54
2022-08-24T10:22:40.373Z,50.55
2022-08-24T10:24:56.065Z,49.46
2022-08-24T10:27:14.232Z,49.94
2022-08-24T10:29:29.652Z,48.52
2022-08-24T10:31:37.618Z,49.02
2022-08-24T10:33:55.001Z,48.67
2022-08-24T10:36:11.835Z,49.38
2022-08-24T10:38:51.361Z,49.43
2022-08-24T10:41:11.548Z,49.69
2022-08-24T10:43:48.499Z,49.97
2022-08-24T10:46:17.421Z,49.47
2022-08-24T10:48:39.157Z,49.85
2022-08-24T10:50:54.647Z,48.76
2022-08-24T10:53:15.796Z,48.33
2022-08-24T10:55:22.388Z,48.96
2022-08-24T10:57:32.107Z,49.45
2022-08-24T10:59:40.548Z,49.27
2022-08-24T11:02:02.123Z,49.72
2022-08-24T11:04:14.506Z,47.18
2022-08-24T11:06:18.703Z,46.81
2022-08-24T11:08:24.413Z,46.15
2022-08-24T11:10:30.378Z,47.10
2022-08-24T11:12:42.597Z,48.63
2022-08-24T11:14:48.672Z,48.17
2022-08-24T11:16:55.857Z,47.51
2022-08-24T11:19:02.318Z,47.47
2022-08-24T11:21:05.536Z,47.53
2022-08-24T11:23:10.503Z,47.81
2022-08-24T11:25:18.409Z,47.80
2022-08-24T11:27:30.520Z,47.76
2022-08-24T11:30:03.467Z,47.68
2022-08-24T11:32:06.716Z,47.91
2022-08-24T11:34:10.813Z,48.30
2022-08-24T11:36:17.424Z,47.85
2022-08-24T11:38:27.348Z,48.36
2022-08-24T11:40:32.056Z,48.47
2022-08-24T11:42:43.335Z,48.65
2022-08-24T11:44:50.809Z,48.75
2022-08-24T11:46:59.039Z,48.32
2022-08-24T11:49:08.995Z,48.80
2022-08-24T11:51:16.708Z,48.61
2022-08-24T11:53:28.469Z,48.47
2022-08-24T11:55:47.427Z,48.75
2022-08-24T11:58:02.352Z,49.27
2022-08-24T12:00:10.953Z,49.06
2022-08-24T12:02:20.091Z,49.33
2022-08-24T12:04:36.608Z,48.56
2022-08-24T12:06:49.237Z,49.01
2022-08-24T12:08:54.903Z,48.25
2022-08-24T12:11:03.130Z,48.43
2022-08-24T12:13:11.248Z,47.98
2022-08-24T12:15:18.183Z,48.02
2022-08-24T12:17:25.806Z,48.19
2022-08-24T12:19:30.689Z,47.99
2022-08-24T12:21:35.491Z,48.05
2022-08-24T12:23:41.107Z,47.95
2022-08-24T12:26:04.960Z,48.09
2022-08-24T12:28:08.076Z,48.17
2022-08-24T12:30:14.780Z,48.01
2022-08-24T12:32:20.515Z,47.69
2022-08-24T12:34:30.794Z,47.97
2022-08-24T12:36:39.911Z,47.71
2022-08-24T12:38:46.673Z,47.89
2022-08-24T12:40:54.029Z,47.47
2022-08-24T12:43:00.976Z,47.79
2022-08-24T12:45:07.808Z,47.81
2022-08-24T12:47:13.503Z,48.74
2022-08-24T12:49:23.285Z,48.01
2022-08-24T12:51:31.979Z,47.98
2022-08-24T12:53:55.557Z,48.22
2022-08-24T12:56:32.964Z,48.52
2022-08-24T12:59:08.364Z,48.57
2022-08-24T13:01:12.834Z,48.81
2022-08-24T13:03:26.897Z,48.78
2022-08-24T13:05:40.874Z,49.01
2022-08-24T13:07:47.051Z,49.09
2022-08-24T13:10:06.947Z,48.77
2022-08-24T13:13:01.933Z,49.47
2022-08-24T13:15:26.256Z,49.38
2022-08-24T13:17:41.458Z,48.93
2022-08-24T13:19:46.032Z,49.11
2022-08-24T13:21:53.293Z,49.21
2022-08-24T13:24:31.050Z,48.55
2022-08-24T13:26:35.893Z,48.81
2022-08-24T13:28:42.108Z,48.47
2022-08-24T13:31:05.713Z,49.15
2022-08-24T13:33:11.380Z,48.67
2022-08-24T13:35:34.974Z,49.30
2022-08-24T13:37:38.442Z,49.16
2022-08-24T13:40:08.612Z,49.83
2022-08-24T13:42:53.617Z,49.52
2022-08-24T13:45:26.107Z,49.42
2022-08-24T13:47:33.782Z,49.17
2022-08-24T13:49:52.677Z,48.27
2022-08-24T13:52:08.563Z,48.74
2022-08-24T13:54:22.559Z,48.99
2022-08-24T13:56:47.613Z,50.21
2022-08-24T13:58:56.731Z,50.33
2022-08-24T14:01:05.161Z,50.01
2022-08-24T14:03:27.826Z,49.50
2022-08-24T14:05:35.877Z,49.98
2022-08-24T14:07:50.599Z,49.40
2022-08-24T14:10:05.663Z,48.40
2022-08-24T14:12:25.061Z,48.94
2022-08-24T14:14:50.988Z,48.35
2022-08-24T14:17:22.299Z,48.38
2022-08-24T14:19:31.908Z,47.92
2022-08-24T14:21:39.478Z,47.85
2022-08-24T14:23:52.573Z,48.37
2022-08-24T14:26:28.664Z,48.81
2022-08-24T14:28:37.912Z,49.03
2022-08-24T14:30:46.758Z,49.34
2022-08-24T14:33:08.020Z,49.10
2022-08-24T14:35:27.716Z,49.35
2022-08-24T14:37:36.961Z,49.67
2022-08-24T14:39:46.870Z,49.41
2022-08-24T14:41:58.757Z,49.81
2022-08-24T14:44:11.812Z,50.37
2022-08-24T14:46:22.450Z,50.81
2022-08-24T14:48:35.926Z,50.71
2022-08-24T14:50:43.232Z,50.81
2022-08-24T14:53:14.370Z,48.66
2022-08-24T14:55:29.745Z,49.23
2022-08-24T14:57:54.390Z,49.62
2022-08-24T15:00:08.222Z,49.76
2022-08-24T15:02:38.717Z,50.26
2022-08-24T15:04:44.539Z,50.47
2022-08-24T15:06:49.994Z,50.69
2022-08-24T15:08:55.691Z,51.41
2022-08-24T15:11:03.834Z,51.45
2022-08-24T15:13:13.165Z,52.51
2022-08-24T15:15:23.789Z,51.31
2022-08-24T15:17:39.545Z,51.47
2022-08-24T15:19:48.800Z,52.36
2022-08-24T15:21:57.652Z,52.34
2022-08-24T15:24:10.158Z,52.34
2022-08-24T15:26:18.947Z,52.83
2022-08-24T15:28:25.676Z,52.92
2022-08-24T15:30:31.177Z,53.32
2022-08-24T15:32:44.923Z,53.63
2022-08-24T15:34:50.592Z,53.89
2022-08-24T15:37:01.580Z,53.87
2022-08-24T15:39:05.885Z,53.95
2022-08-24T15:41:12.608Z,52.99
2022-08-24T15:43:16.168Z,52.88
2022-08-24T15:45:20.967Z,53.11
2022-08-24T15:47:27.846Z,53.11
2022-08-24T15:49:35.805Z,53.26
2022-08-24T15:51:45.595Z,53.31
2022-08-24T15:53:48.801Z,54.02
2022-08-24T15:55:53.421Z,53.97
2022-08-24T15:57:57.431Z,54.43
2022-08-24T16:00:08.685Z,54.22
2022-08-24T16:02:26.111Z,53.72
2022-08-24T16:04:47.208Z,53.89
2022-08-24T16:06:50.259Z,53.97
2022-08-24T16:09:01.858Z,54.18
2022-08-24T16:11:20.310Z,53.85
2022-08-24T16:13:29.059Z,53.67
2022-08-24T16:15:32.221Z,53.75
2022-08-24T16:17:37.848Z,53.76
2022-08-24T16:19:40.989Z,54.64
2022-08-24T16:21:54.611Z,54.16
2022-08-24T16:24:02.555Z,53.93
2022-08-24T16:26:21.394Z,54.56
2022-08-24T16:28:36.592Z,54.76
2022-08-24T16:30:50.029Z,54.63
2022-08-24T16:32:54.973Z,54.10
2022-08-24T16:35:16.707Z,54.19
2022-08-24T16:37:21.703Z,54.06
2022-08-24T16:39:25.498Z,54.87
2022-08-24T16:41:28.523Z,54.57
2022-08-24T16:43:31.612Z,54.58
2022-08-24T16:45:36.156Z,55.12
2022-08-24T16:47:39.368Z,55.07
2022-08-24T16:49:42.343Z,55.39
2022-08-24T16:51:45.731Z,56.25
2022-08-24T16:53:50.295Z,55.56
2022-08-24T16:55:53.668Z,56.50
2022-08-24T16:57:56.882Z,56.07
2022-08-24T17:00:00.074Z,55.93
2022-08-24T17:02:03.212Z,56.33
2022-08-24T17:04:08.893Z,56.32
2022-08-24T17:06:13.203Z,56.67
2022-08-24T17:08:16.189Z,56.86
2022-08-24T17:10:23.133Z,56.55
2022-08-24T17:12:26.996Z,56.21
2022-08-24T17:14:29.987Z,56.28
2022-08-24T17:16:33.095Z,56.93
2022-08-24T17:18:36.215Z,56.03
2022-08-24T17:20:39.400Z,56.94
2022-08-24T17:22:42.478Z,56.80
2022-08-24T17:24:45.657Z,56.61
2022-08-24T17:26:52.196Z,56.59
2022-08-24T17:28:55.534Z,56.21
2022-08-24T17:30:58.770Z,56.99
2022-08-24T17:33:01.788Z,56.69
2022-08-24T17:35:05.369Z,57.38
2022-08-24T17:37:08.800Z,56.99
2022-08-24T17:39:12.758Z,56.53
2022-08-24T17:41:18.490Z,56.80
2022-08-24T17:43:24.778Z,57.94
2022-08-24T17:45:28.007Z,57.14
2022-08-24T17:47:31.212Z,57.57
2022-08-24T17:49:34.561Z,57.33
2022-08-24T17:51:37.561Z,58.59
2022-08-24T17:53:41.473Z,57.89
2022-08-24T17:55:44.602Z,58.61
2022-08-24T17:57:49.002Z,58.88
2022-08-24T17:59:54.640Z,58.06
2022-08-24T18:01:59.230Z,58.88
2022-08-24T18:04:02.353Z,58.64
2022-08-24T18:06:05.662Z,59.57
2022-08-24T18:08:09.423Z,59.00
2022-08-24T18:10:23.819Z,59.79
2022-08-24T18:12:27.527Z,58.96
2022-08-24T18:14:31.401Z,59.93
2022-08-24T18:16:35.847Z,60.32
2022-08-24T18:18:38.868Z,59.76
2022-08-24T18:20:42.421Z,60.06
2022-08-24T18:22:47.230Z,60.16
2022-08-24T18:24:53.725Z,61.01
2022-08-24T18:26:57.468Z,61.65
2022-08-24T18:29:05.699Z,61.40
2022-08-24T18:31:10.418Z,61.42
2022-08-24T18:33:15.005Z,61.58
2022-08-24T18:35:18.239Z,61.48
2022-08-24T18:37:21.318Z,61.22
2022-08-24T18:39:24.468Z,61.04
2022-08-24T18:41:32.405Z,61.54
2022-08-24T18:43:37.911Z,61.87
2022-08-24T18:45:41.134Z,61.95
2022-08-24T18:47:44.367Z,61.63
2022-08-24T18:49:57.330Z,62.35
2022-08-24T18:52:04.232Z,62.12
2022-08-24T18:54:10.739Z,62.42
2022-08-24T18:56:14.039Z,62.55
2022-08-24T18:58:17.050Z,62.51
2022-08-24T19:00:20.404Z,62.96
2022-08-24T19:02:33.959Z,62.87
2022-08-24T19:04:43.795Z,63.01
2022-08-24T19:06:48.313Z,63.20
2022-08-24T19:08:51.415Z,63.48
2022-08-24T19:10:54.456Z,63.31
2022-08-24T19:12:59.794Z,63.62
2022-08-24T19:15:03.534Z,63.67
2022-08-24T19:17:07.400Z,64.26
2022-08-24T19:19:11.948Z,64.37
2022-08-24T19:21:15.147Z,64.30
2022-08-24T19:23:22.563Z,64.20
2022-08-24T19:25:28.147Z,64.35
2022-08-24T19:27:31.470Z,64.33
2022-08-24T19:31:58.708Z,64.74
2022-08-24T19:34:03.295Z,64.63
2022-08-24T19:36:07.091Z,65.00
2022-08-24T19:38:10.215Z,64.63
2022-08-24T19:40:14.738Z,64.82
2022-08-24T19:42:18.588Z,64.67
2022-08-24T19:44:39.467Z,64.73
2022-08-24T19:46:42.786Z,65.30
2022-08-24T19:48:45.992Z,65.67
2022-08-24T19:50:49.089Z,65.53
2022-08-24T19:52:52.187Z,65.29
2022-08-24T19:54:56.160Z,65.48
2022-08-24T19:57:01.055Z,65.83
2022-08-24T19:59:08.347Z,66.45
2022-08-24T20:01:14.311Z,65.67
2022-08-24T20:03:18.004Z,66.42
2022-08-24T20:05:22.466Z,66.16
2022-08-24T20:07:25.566Z,66.59
2022-08-24T20:09:29.183Z,66.76
2022-08-24T20:11:32.446Z,66.43
2022-08-24T20:13:37.277Z,66.71
2022-08-24T20:15:40.792Z,66.80
2022-08-24T20:17:43.923Z,67.07
2022-08-24T20:19:47.000Z,67.07
2022-08-24T20:21:50.099Z,66.66
2022-08-24T20:23:53.301Z,66.75
2022-08-24T20:25:56.490Z,67.75
2022-08-24T20:28:25.514Z,67.68
2022-08-24T20:30:25.618Z,67.14
2022-08-24T20:32:29.340Z,67.04
2022-08-24T20:34:32.452Z,67.31
2022-08-24T20:36:37.516Z,68.21
2022-08-24T20:38:40.948Z,68.00
2022-08-24T20:40:44.533Z,68.21
2022-08-24T20:42:47.692Z,68.50
2022-08-24T20:44:50.749Z,68.23
2022-08-24T20:46:56.020Z,68.77
2022-08-24T20:48:59.313Z,68.21
2022-08-24T20:51:02.601Z,68.50
2022-08-24T20:53:06.165Z,69.74
2022-08-24T20:55:10.627Z,69.50
2022-08-24T20:57:17.287Z,70.05
2022-08-24T20:59:20.676Z,69.11
2022-08-24T21:01:24.852Z,69.56
2022-08-24T21:03:29.419Z,69.58
2022-08-24T21:05:32.665Z,70.76
2022-08-24T21:07:35.978Z,70.16
2022-08-24T21:09:39.467Z,70.39
2022-08-24T21:11:43.188Z,71.06
2022-08-24T21:13:46.644Z,70.81
2022-08-24T21:15:51.723Z,70.67
2022-08-24T21:17:55.024Z,71.35
2022-08-24T21:19:59.534Z,72.05
2022-08-24T21:22:03.805Z,71.29
2022-08-24T21:24:08.070Z,71.79
2022-08-24T21:26:14.010Z,72.63
2022-08-24T21:28:17.657Z,71.60
2022-08-24T21:30:23.119Z,72.45
2022-08-24T21:32:44.028Z,72.30
2022-08-24T21:34:47.161Z,73.25
2022-08-24T21:36:52.600Z,72.59
2022-08-24T21:38:57.287Z,72.59
2022-08-24T21:41:00.670Z,72.80
2022-08-24T21:43:09.323Z,72.72
2022-08-24T21:45:18.399Z,73.13
2022-08-24T21:47:21.402Z,73.58
2022-08-24T21:49:24.690Z,73.53
2022-08-24T21:51:28.342Z,74.53
2022-08-24T21:53:32.871Z,74.01
2022-08-24T21:55:37.992Z,73.84
2022-08-24T21:57:41.447Z,74.36
2022-08-24T21:59:44.597Z,74.14
2022-08-24T22:01:48.020Z,74.55
2022-08-24T22:03:51.231Z,74.83
2022-08-24T22:05:54.397Z,74.90
2022-08-24T22:07:57.844Z,74.86
2022-08-24T22:10:02.312Z,75.15
2022-08-24T22:12:05.875Z,74.82
2022-08-24T22:14:09.004Z,75.05
2022-08-24T22:16:12.525Z,75.65
2022-08-24T22:18:15.846Z,75.84
2022-08-24T22:20:23.443Z,75.40
2022-08-24T22:22:27.695Z,75.93
2022-08-24T22:24:30.784Z,75.29
2022-08-24T22:26:35.740Z,75.81
2022-08-24T22:28:41.292Z,76.19
2022-08-24T22:30:47.941Z,76.11
2022-08-24T22:32:52.105Z,75.63
2022-08-24T22:34:55.707Z,75.93
2022-08-24T22:37:00.983Z,76.68
2022-08-24T22:39:05.531Z,76.48
2022-08-24T22:41:09.148Z,76.36
2022-08-24T22:43:13.668Z,76.51
2022-08-24T22:45:16.023Z,76.94
2022-08-24T22:47:19.734Z,77.01
2022-08-24T22:49:25.731Z,77.02
2022-08-24T22:51:32.204Z,76.83
2022-08-24T22:53:35.140Z,77.44
2022-08-24T22:55:38.149Z,77.38
2022-08-24T22:57:41.214Z,77.55
2022-08-24T22:59:46.561Z,77.74
2022-08-24T23:01:51.228Z,78.66
2022-08-24T23:03:55.428Z,78.26
2022-08-24T23:05:58.544Z,78.35
2022-08-24T23:08:01.844Z,78.57
2022-08-24T23:10:06.511Z,78.38
2022-08-24T23:12:11.799Z,78.48
2022-08-24T23:14:15.902Z,78.93
2022-08-24T23:16:20.384Z,78.37
2022-08-24T23:18:43.230Z,78.99
2022-08-24T23:20:46.227Z,78.50
2022-08-24T23:22:49.921Z,78.47
2022-08-24T23:24:52.934Z,79.03
2022-08-24T23:26:56.117Z,79.43
2022-08-24T23:28:59.335Z,79.14
2022-08-24T23:31:06.708Z,79.62
2022-08-24T23:33:11.162Z,79.43
2022-08-24T23:35:14.200Z,79.30
2022-08-24T23:37:18.549Z,79.37
2022-08-24T23:39:22.139Z,80.04
2022-08-24T23:41:27.665Z,79.41
2022-08-24T23:43:30.688Z,79.59
2022-08-24T23:45:33.734Z,80.64
2022-08-24T23:47:36.721Z,80.43
2022-08-24T23:49:41.733Z,81.28
2022-08-24T23:51:44.757Z,81.02
2022-08-24T23:53:49.054Z,81.31
2022-08-24T23:55:52.335Z,80.41
2022-08-24T23:57:56.156Z,80.78
